CheckWX is a tool to help pilots better visualize weather data.  It is not intended as a substitute for an official pre-flight weather briefing.

23:14:38 UTC

KDYL METAR
Doylestown Airport
Doylestown, Pennsylvania, USA
Current

21 mins ago

KDYL 052254Z AUTO 23005KT 10SM CLR 18/06 A2997 RMK AO2 SLP148 T01830056
Observed
Apr-5 @ 22:54 UTC
Wind
  • 230° at 5 KTS
Visibility
Flight Rules
VFR
Cloud Levels
  • Clear skies
Temperature
18°C / 64°F
Dewpoint
C / 43°F
Humidity
46%
Altimeter
29.97" Hg
Pressure
1014.92 hPa
Previous

1 hour ago

KDYL 052154Z AUTO 23006KT 10SM SCT090 19/06 A2997 RMK AO2 SLP149 T01940061
Observed
Apr-5 @ 21:54 UTC
Wind
  • 230° at 6 KTS
Visibility
Flight Rules
VFR
Cloud Levels
  • Scattered at 9,000' AGL
Temperature
19°C / 66°F
Dewpoint
C / 43°F
Humidity
43%
Altimeter
29.97" Hg
Pressure
1014.92 hPa
Previous

2 hours ago

KDYL 052054Z AUTO VRB05KT 10SM FEW060 FEW090 19/06 A2997 RMK AO2 SLP149 T01890056 56010
Observed
Apr-5 @ 20:54 UTC
Wind
  • Variable at 5 KTS
Visibility
Flight Rules
VFR
Cloud Levels
  • Few at 6,000' AGL
  • Few at 9,000' AGL
Temperature
19°C / 66°F
Dewpoint
C / 43°F
Humidity
43%
Altimeter
29.97" Hg
Pressure
1014.92 hPa